createdAt,value
2019-04-29T01:27:43.888Z,55.7
2019-04-29T01:38:28.790Z,55.3
2019-04-29T01:48:45.590Z,55.9
2019-04-29T01:59:32.589Z,56.6
2019-04-29T02:09:46.400Z,56.4
2019-04-29T02:20:02.665Z,56.8
2019-04-29T02:30:16.735Z,56.8
2019-04-29T02:40:30.063Z,57.0
2019-04-29T02:50:43.038Z,57.0
2019-04-29T03:01:17.963Z,56.7
2019-04-29T03:11:35.328Z,56.8
2019-04-29T03:21:48.386Z,57.0
2019-04-29T07:56:51.688Z,52.5
2019-04-29T08:10:32.377Z,52.2
2019-04-29T08:23:55.781Z,50.0
2019-04-29T08:38:48.994Z,48.2
2019-04-29T08:49:05.874Z,45.5
2019-04-29T09:01:14.066Z,43.4
2019-04-29T09:13:10.191Z,42.8
2019-04-29T09:25:38.911Z,42.6
2019-04-29T09:37:13.884Z,42.5
2019-04-29T09:48:39.570Z,42.8
2019-04-29T09:59:45.733Z,43.8
2019-04-29T10:10:02.096Z,44.4
2019-04-29T10:21:21.727Z,45.2
2019-04-29T10:31:32.864Z,45.2
2019-04-29T10:41:44.444Z,44.1
2019-04-29T10:52:34.368Z,41.0
2019-04-29T11:02:48.832Z,39.4
2019-04-29T11:18:34.195Z,39.7
2019-04-29T11:33:59.596Z,38.5
2019-04-29T11:44:14.647Z,38.5
2019-04-29T11:54:28.559Z,38.1
2019-04-29T12:05:14.812Z,38.6
2019-04-29T12:15:28.458Z,38.4
2019-04-29T12:53:47.663Z,38.4
2019-04-29T13:04:32.908Z,39.4
2019-04-29T13:15:36.440Z,39.7
2019-04-29T14:09:05.561Z,39.4
2019-04-29T14:19:39.793Z,40.0
2019-04-29T14:29:40.029Z,40.8
2019-04-29T14:39:54.495Z,41.7
2019-04-29T14:50:10.687Z,42.3
2019-04-29T15:00:21.329Z,43.6
2019-04-29T15:10:36.716Z,45.1
2019-04-29T15:20:46.471Z,45.4
2019-04-29T17:09:14.463Z,49.5
2019-04-29T17:52:32.577Z,52.4
2019-04-29T18:08:39.533Z,53.2
2019-04-29T18:49:07.608Z,54.6
2019-04-29T19:28:45.195Z,56.7
2019-04-29T19:40:42.636Z,56.8
2019-04-29T19:51:13.438Z,57.2
2019-04-29T20:01:13.396Z,57.5
2019-04-29T20:14:36.706Z,58.0
2019-04-29T20:25:37.667Z,58.8
2019-04-29T20:40:01.026Z,58.7
2019-04-29T20:51:48.897Z,58.7
2019-04-29T21:01:49.159Z,58.1
2019-04-29T21:12:00.723Z,58.4
2019-04-29T21:22:20.392Z,58.5
2019-04-29T21:32:25.840Z,58.8
2019-04-29T21:42:39.869Z,59.5
2019-04-29T21:52:55.379Z,59.3
2019-04-29T22:03:28.724Z,59.5
2019-04-29T22:14:27.108Z,57.9
2019-04-29T22:24:39.146Z,57.9
2019-04-29T22:35:50.066Z,58.2
2019-04-29T22:46:08.900Z,59.5
2019-04-29T22:58:11.864Z,58.9
2019-04-29T23:09:41.668Z,58.7
2019-04-29T23:19:52.707Z,58.7
2019-04-29T23:31:16.530Z,59.3
2019-04-29T23:41:32.987Z,59.4
